Flight Track Log - Related Links

Times and Time Zones

All times are in EDT time to prevent confusion due to time zone crossing. See the BVN8571 flight status page for this flight to view local times or setup timezone preferences in your user account.

Time Position Orientation Groundspeed Altitude Reporting Facility
EDT Latitude Longitude Course Direction KTS MPH feet Rate Location/Type
Fri 07:45:58 AM 41.2994 -95.8969 190° South 72 83 1,300  Level Minneapolis Center
Fri 07:46:47 AM 41.2769 -95.9022 190° South 100 115 2,000 771 Climbing Minneapolis Center
Fri 07:47:47 AM 41.2486 -95.9167 201° Southwest 116 133 2,700 744 Climbing Minneapolis Center
Fri 07:48:48 AM 41.2250 -95.9414 218° Southwest 114 131 3,500 756 Climbing Minneapolis Center
Fri 07:49:54 AM 41.2022 -95.9775 230° Southwest 113 130 4,300 709 Climbing Minneapolis Center
Fri 07:50:55 AM 41.1900 -96.0147 246° West 122 140 5,000 689 Climbing Minneapolis Center
Fri 07:51:56 AM 41.1825 -96.0600 258° West 121 139 5,700 446 Climbing Minneapolis Center
Fri 07:52:56 AM 41.1731 -96.1053 255° West 133 153 5,900 99 Climbing Minneapolis Center
Fri 07:53:57 AM 41.1661 -96.1614 261° West 158 182 5,900  Level Minneapolis Center
Fri 07:54:58 AM 41.1572 -96.2206 259° West 159 183 5,900  Level Minneapolis Center
Fri 07:55:58 AM 41.1483 -96.2769 258° West 156 180 5,900  Level Minneapolis Center
Fri 07:56:59 AM 41.1392 -96.3333 258° West 154 177 5,900  Level Minneapolis Center
Fri 07:57:59 AM 41.1303 -96.3894 258° West 155 178 5,900  Level Minneapolis Center
Fri 07:59:00 AM 41.1233 -96.4456 261° West 156 180 5,900  Level Minneapolis Center
Fri 08:00:01 AM 41.1119 -96.5022 255° West 154 177 5,900  Level Minneapolis Center
Fri 08:01:01 AM 41.1050 -96.5581 261° West 153 176 5,900  Level Minneapolis Center
Fri 08:02:02 AM 41.0958 -96.6144 258° West 155 178 5,900  Level Minneapolis Center
Fri 08:03:02 AM 41.0867 -96.6706 258° West 154 177 5,900  Level Minneapolis Center
Fri 08:04:03 AM 41.0794 -96.7239 260° West 152 175 5,900  Level Minneapolis Center
Fri 08:05:04 AM 41.0700 -96.7803 257° West 152 175 5,900  Level Minneapolis Center
Fri 08:06:04 AM 41.0606 -96.8336 257° West 153 176 5,900  Level Minneapolis Center
Fri 08:07:05 AM 41.0517 -96.8925 259° West 153 176 5,900  Level Minneapolis Center
Fri 08:08:05 AM 41.0419 -96.9458 256° West 155 178 5,900  Level Minneapolis Center
Fri 08:08:35 AM 41.0519 -96.9731 296° West 156 180 5,900  Level Minneapolis Center
Fri 08:09:06 AM 41.0328 -97.0047 231° Southwest 156 180 5,900  Level Minneapolis Center
Fri 08:09:36 AM 41.0444 -97.0289 303° West 155 178 5,900  Level Minneapolis Center
Fri 08:10:07 AM 41.0236 -97.0608 229° Southwest 157 181 5,900  Level Minneapolis Center
Fri 08:10:37 AM 41.0356 -97.0856 303° West 156 180 5,900  Level Minneapolis Center
Fri 08:11:38 AM 41.0272 -97.1414 259° West 156 180 5,900  Level Minneapolis Center
Fri 08:12:40 AM 41.0183 -97.1981 258° West 156 180 5,900  Level Minneapolis Center
Fri 08:13:41 AM 41.0081 -97.2525 256° West 154 177 5,900  Level Minneapolis Center
Fri 08:14:55 AM 41.0019 -97.3083 262° West 153 176 5,900  Level Minneapolis Center
Fri 08:15:56 AM 40.9894 -97.3800 257° West 157 181 5,900  Level Minneapolis Center
Fri 08:16:58 AM 40.9825 -97.4353 261° West 153 176 5,900  Level Minneapolis Center
Fri 08:18:00 AM 40.9719 -97.5003 258° West 151 174 5,900  Level Minneapolis Center
Fri 08:19:01 AM 40.9636 -97.5547 259° West 151 174 5,900  Level Minneapolis Center
Fri 08:20:03 AM 40.9547 -97.6083 258° West 150 173 5,900  Level Minneapolis Center
Fri 08:21:04 AM 40.9461 -97.6633 258° West 151 174 5,900  Level Minneapolis Center
Fri 08:22:06 AM 40.9386 -97.7178 260° West 151 174 5,900  Level Minneapolis Center
Fri 08:23:07 AM 40.9294 -97.7717 257° West 151 174 5,900  Level Minneapolis Center
Fri 08:24:09 AM 40.9211 -97.8264 259° West 151 174 5,900  Level Minneapolis Center
Fri 08:25:10 AM 40.9128 -97.8814 259° West 152 175 5,900  Level Minneapolis Center
Fri 08:26:12 AM 40.9036 -97.9375 258° West 154 177 5,900  Level Minneapolis Center
Fri 08:27:14 AM 40.8931 -98.0025 258° West 152 175 5,900  Level Minneapolis Center
Fri 08:28:15 AM 40.8861 -98.0544 260° West 146 168 5,900  Level Minneapolis Center
Fri 08:29:17 AM 40.8753 -98.1067 255° West 147 169 5,900  Level Minneapolis Center
Fri 08:30:19 AM 40.8675 -98.1622 260° West 151 174 5,900  Level Minneapolis Center
Fri 08:31:20 AM 40.8594 -98.2161 259° West 150 173 5,900  Level Minneapolis Center
Fri 08:32:22 AM 40.8517 -98.2711 259° West 152 175 5,900  Level Minneapolis Center
Fri 08:33:23 AM 40.8422 -98.3250 257° West 150 173 5,900  Level Minneapolis Center
Fri 08:34:25 AM 40.8328 -98.3797 257° West 152 175 5,900 48 Level Minneapolis Center
Fri 08:35:27 AM 40.8217 -98.4339 255° West 152 175 6,000 49 Climbing Minneapolis Center
Fri 08:36:28 AM 40.8111 -98.4997 258° West 152 175 6,000 -49 Level Minneapolis Center
Fri 08:37:30 AM 40.8014 -98.5536 257° West 152 175 5,900 -98 Descending Minneapolis Center
Fri 08:38:31 AM 40.7928 -98.6069 258° West 150 173 5,800 -195 Descending Minneapolis Center
Fri 08:39:33 AM 40.7836 -98.6625 258° West 151 174 5,500 -339 Descending Minneapolis Center
Fri 08:40:35 AM 40.7747 -98.7194 258° West 154 177 5,100 -390 Descending Minneapolis Center
Fri 08:41:36 AM 40.7642 -98.7778 257° West 158 182 4,700 -390 Descending Minneapolis Center
Fri 08:42:38 AM 40.7558 -98.8350 259° West 159 183 4,300 -339 Descending Minneapolis Center
Fri 08:43:40 AM 40.7511 -98.8919 264° West 158 182 4,000 -390 Descending Minneapolis Center
Fri 08:44:41 AM 40.7558 -98.9483 276° West 155 178 3,500 -585 Descending Minneapolis Center
Fri 08:45:43 AM 40.7589 -99.0008 274° West 150 173 2,800 -537 Descending Minneapolis Center
Fri 08:46:44 AM 40.7294 -99.0042 185° South 141 162 2,400 -393 Descending Minneapolis Center
Fri 08:48:00 AM 40.7270 -99.0068 270° West  Level Estimated

Login

Don't have an account? Register now (free) for customized features, flight alerts, and more!